Time;durP1;ratioP1;P1;durP2;ratioP2;P2;SDS_P1;SDS_P2;PMS_P1;PMS_P2;Temp;Humidity;BMP_temperature;BMP_pressure;BME280_temperature;BME280_humidity;BME280_pressure;Samples;Min_cycle;Max_cycle;Signal;HPM_P1;HPM_P2
2021/10/22 00:01:56;;;;;;;6.63;2.28;;;5.60;99.90;;;;;;5020044;28;20042;-59
2021/10/22 00:04:22;;;;;;;6.20;2.50;;;5.50;99.90;;;;;;5020579;28;20046;-59
2021/10/22 00:06:49;;;;;;;6.10;1.88;;;5.50;99.90;;;;;;5022631;28;20057;-59
2021/10/22 00:09:16;;;;;;;6.45;2.13;;;5.50;99.90;;;;;;5023617;28;20081;-59
2021/10/22 00:11:46;;;;;;;6.40;2.38;;;5.50;99.90;;;;;;5024173;28;20103;-59
2021/10/22 00:14:16;;;;;;;9.27;1.95;;;5.50;99.90;;;;;;5024071;28;20145;-59
2021/10/22 00:16:42;;;;;;;6.80;1.92;;;5.40;99.90;;;;;;5024383;28;20115;-59
2021/10/22 00:19:10;;;;;;;8.82;2.13;;;5.50;99.90;;;;;;5025037;28;20111;-59
2021/10/22 00:21:37;;;;;;;8.48;1.90;;;5.40;99.90;;;;;;5023046;28;20125;-59
2021/10/22 00:24:04;;;;;;;5.47;2.28;;;5.40;99.90;;;;;;5024488;28;20073;-59
2021/10/22 00:26:31;;;;;;;3.78;1.95;;;5.40;99.90;;;;;;5023603;28;20081;-59
2021/10/22 00:28:58;;;;;;;7.07;1.95;;;5.50;99.90;;;;;;5023525;28;20128;-59
2021/10/22 00:31:25;;;;;;;7.63;2.70;;;5.50;99.90;;;;;;5024898;28;20128;-60
2021/10/22 00:33:53;;;;;;;6.13;2.38;;;5.60;99.90;;;;;;5023838;28;20055;-60
2021/10/22 00:36:19;;;;;;;5.75;2.10;;;5.60;99.90;;;;;;5024443;28;20092;-59
2021/10/22 00:38:48;;;;;;;9.40;2.45;;;5.60;99.90;;;;;;5024842;28;20073;-58
2021/10/22 00:41:17;;;;;;;7.32;2.05;;;5.60;99.90;;;;;;5025324;28;20076;-59
2021/10/22 00:43:44;;;;;;;8.23;1.98;;;5.60;99.90;;;;;;5023602;28;20120;-59
2021/10/22 00:46:11;;;;;;;5.90;2.30;;;5.70;99.90;;;;;;5025029;28;20081;-59
2021/10/22 00:48:38;;;;;;;8.02;2.58;;;5.70;99.90;;;;;;5023614;28;20385;-59
2021/10/22 00:51:07;;;;;;;10.52;2.00;;;5.70;99.90;;;;;;5023683;28;20111;-59
2021/10/22 00:53:37;;;;;;;8.75;1.70;;;5.70;99.90;;;;;;5023537;28;20137;-59
2021/10/22 00:56:08;;;;;;;6.03;1.90;;;5.70;99.90;;;;;;5024343;28;20096;-59
2021/10/22 00:58:36;;;;;;;7.63;2.10;;;5.70;99.90;;;;;;5023497;28;20092;-59
2021/10/22 01:01:03;;;;;;;5.60;2.13;;;5.70;99.90;;;;;;5023285;28;20076;-59
2021/10/22 01:03:30;;;;;;;5.10;1.70;;;5.70;99.90;;;;;;5020080;28;20493;-59
2021/10/22 01:06:00;;;;;;;4.70;1.67;;;5.70;99.90;;;;;;5019927;28;20128;-59
2021/10/22 01:08:30;;;;;;;9.27;1.90;;;5.80;99.90;;;;;;5023661;28;20165;-60
2021/10/22 01:10:58;;;;;;;11.13;2.70;;;5.80;99.90;;;;;;5023588;28;20038;-59
2021/10/22 01:13:25;;;;;;;4.47;1.60;;;5.80;99.90;;;;;;5023335;28;20634;-59
2021/10/22 01:15:52;;;;;;;8.20;1.83;;;5.80;99.80;;;;;;5026743;28;20089;-59
2021/10/22 01:18:19;;;;;;;6.55;1.80;;;5.90;99.90;;;;;;5026796;28;20064;-59
2021/10/22 01:20:45;;;;;;;6.78;2.22;;;5.90;99.80;;;;;;5027479;28;20596;-59
2021/10/22 01:23:12;;;;;;;4.47;1.52;;;5.90;99.70;;;;;;5028031;28;20088;-59
2021/10/22 01:25:39;;;;;;;6.78;2.20;;;5.90;99.80;;;;;;5027906;28;20124;-60
2021/10/22 01:28:06;;;;;;;6.70;1.98;;;5.90;99.80;;;;;;5027629;28;20128;-59
2021/10/22 01:30:33;;;;;;;6.90;1.55;;;5.90;99.80;;;;;;5026742;28;20492;-59
2021/10/22 01:33:04;;;;;;;6.32;1.80;;;5.90;99.70;;;;;;5027275;28;20080;-60
2021/10/22 01:35:31;;;;;;;7.95;2.03;;;6.00;99.80;;;;;;5029344;28;20145;-60
2021/10/22 01:37:58;;;;;;;7.30;2.42;;;6.00;99.70;;;;;;5028709;28;20200;-59
2021/10/22 01:40:25;;;;;;;12.13;2.30;;;6.00;99.70;;;;;;5029100;28;20109;-59
2021/10/22 01:42:52;;;;;;;7.43;1.52;;;6.00;99.70;;;;;;5027219;28;20053;-59
2021/10/22 01:45:18;;;;;;;9.20;2.17;;;6.00;99.80;;;;;;5027096;28;20124;-58
2021/10/22 01:47:45;;;;;;;5.28;2.60;;;6.00;99.70;;;;;;5026397;28;20128;-59
2021/10/22 01:50:12;;;;;;;7.70;1.95;;;6.00;99.70;;;;;;5026186;28;20053;-59
2021/10/22 01:52:39;;;;;;;10.52;1.95;;;6.00;99.70;;;;;;5027426;28;20132;-59
2021/10/22 01:55:06;;;;;;;6.88;1.55;;;6.00;99.60;;;;;;5028037;28;20121;-59
2021/10/22 01:57:33;;;;;;;6.65;2.15;;;6.00;99.60;;;;;;5027497;28;20038;-59
2021/10/22 02:00:00;;;;;;;8.98;2.03;;;6.00;99.60;;;;;;5026712;28;20088;-59
2021/10/22 02:02:27;;;;;;;7.97;2.38;;;6.00;99.50;;;;;;5041656;28;20073;-59
2021/10/22 02:04:54;;;;;;;6.90;2.72;;;6.00;99.70;;;;;;5026351;28;20072;-59
2021/10/22 02:07:20;;;;;;;8.38;2.38;;;6.00;99.70;;;;;;5027489;28;20104;-59
2021/10/22 02:09:47;;;;;;;9.82;2.10;;;6.00;99.50;;;;;;5027408;28;20948;-60
2021/10/22 02:12:14;;;;;;;11.63;1.95;;;6.10;99.40;;;;;;5026897;28;20049;-59
2021/10/22 02:14:41;;;;;;;9.45;2.05;;;6.20;99.30;;;;;;5025656;28;20132;-59
2021/10/22 02:17:07;;;;;;;6.95;2.13;;;6.20;99.20;;;;;;5026412;28;20563;-59
2021/10/22 02:19:34;;;;;;;5.35;1.58;;;6.20;99.10;;;;;;5025879;28;20124;-59
2021/10/22 02:22:01;;;;;;;9.73;1.70;;;6.30;99.10;;;;;;5027624;28;20084;-59
2021/10/22 02:24:28;;;;;;;7.65;2.50;;;6.30;99.00;;;;;;5027171;28;20100;-59
2021/10/22 02:26:54;;;;;;;12.40;2.13;;;6.40;99.20;;;;;;5024762;28;20099;-60
2021/10/22 02:29:21;;;;;;;8.45;2.22;;;6.40;98.80;;;;;;5025227;28;20056;-59
2021/10/22 02:31:48;;;;;;;10.93;2.15;;;6.40;98.80;;;;;;5024902;28;20766;-59
2021/10/22 02:34:15;;;;;;;10.10;2.17;;;6.40;98.70;;;;;;5024027;28;20069;-59
2021/10/22 02:36:42;;;;;;;9.85;2.42;;;6.50;98.60;;;;;;5007883;28;20099;-59
2021/10/22 02:39:08;;;;;;;7.38;2.13;;;6.60;98.50;;;;;;5027142;28;20623;-59
2021/10/22 02:41:35;;;;;;;7.47;1.98;;;6.60;98.40;;;;;;5027347;28;20511;-60
2021/10/22 02:44:02;;;;;;;11.23;2.33;;;6.60;98.40;;;;;;5025808;28;20203;-59
2021/10/22 02:46:29;;;;;;;7.85;2.17;;;6.60;98.30;;;;;;5027664;28;20077;-60
2021/10/22 02:48:56;;;;;;;7.97;2.03;;;6.60;98.30;;;;;;5026082;28;20042;-59
2021/10/22 02:51:23;;;;;;;7.75;1.92;;;6.70;98.40;;;;;;5027560;28;20081;-59
2021/10/22 02:53:50;;;;;;;7.40;2.15;;;6.70;98.20;;;;;;5027267;28;20103;-59
2021/10/22 02:56:16;;;;;;;12.05;2.53;;;6.70;98.10;;;;;;5026922;28;20088;-59
2021/10/22 02:58:43;;;;;;;6.88;2.03;;;6.70;98.10;;;;;;5025641;28;20107;-59
2021/10/22 03:01:10;;;;;;;8.05;1.65;;;6.70;98.10;;;;;;5026086;28;20072;-60
2021/10/22 03:03:37;;;;;;;5.65;2.05;;;6.70;98.10;;;;;;5026275;28;20497;-59
2021/10/22 03:06:04;;;;;;;8.13;2.22;;;6.70;98.20;;;;;;5026156;28;20124;-59
2021/10/22 03:08:30;;;;;;;9.05;2.30;;;6.70;98.20;;;;;;5026560;28;20073;-60
2021/10/22 03:10:58;;;;;;;10.13;1.77;;;6.70;98.30;;;;;;5026491;28;20461;-59
2021/10/22 03:13:25;;;;;;;9.93;2.25;;;6.70;98.30;;;;;;5009427;28;20124;-59
2021/10/22 03:15:52;;;;;;;7.53;2.08;;;6.70;98.20;;;;;;5026370;28;20145;-59
2021/10/22 03:18:19;;;;;;;7.90;1.75;;;6.70;98.20;;;;;;5025700;28;20476;-59
2021/10/22 03:20:46;;;;;;;8.20;2.97;;;6.70;98.20;;;;;;5026696;28;20061;-58
2021/10/22 03:23:12;;;;;;;7.78;2.03;;;6.70;98.20;;;;;;5025921;28;20076;-59
2021/10/22 03:25:39;;;;;;;9.73;3.05;;;6.70;98.20;;;;;;5025842;28;20084;-58
2021/10/22 03:28:06;;;;;;;14.60;3.42;;;6.70;98.10;;;;;;5024634;28;20129;-59
2021/10/22 03:30:33;;;;;;;7.45;2.22;;;6.70;98.10;;;;;;5024038;28;20505;-60
2021/10/22 03:33:01;;;;;;;11.80;2.50;;;6.70;98.20;;;;;;5021728;28;20045;-59
2021/10/22 03:35:28;;;;;;;7.65;1.73;;;6.80;98.10;;;;;;5022104;28;20092;-59
2021/10/22 03:37:55;;;;;;;7.45;2.22;;;6.70;98.10;;;;;;5024279;28;20461;-59
2021/10/22 03:40:22;;;;;;;10.15;2.83;;;6.70;98.10;;;;;;5025106;28;20580;-59
2021/10/22 03:42:54;;;;;;;5.90;1.85;;;6.70;98.20;;;;;;5024795;28;20546;-59
2021/10/22 03:45:21;;;;;;;9.18;2.30;;;6.70;98.20;;;;;;5024041;28;20072;-59
2021/10/22 03:47:49;;;;;;;10.38;1.85;;;6.70;98.20;;;;;;5030881;28;20133;-59
2021/10/22 03:50:17;;;;;;;8.48;1.73;;;6.70;98.30;;;;;;5023983;28;20076;-59
2021/10/22 03:52:44;;;;;;;11.38;2.17;;;6.70;98.50;;;;;;5025157;28;20471;-58
2021/10/22 03:55:12;;;;;;;8.43;2.17;;;6.60;98.40;;;;;;5024336;28;20080;-59
2021/10/22 03:57:39;;;;;;;7.50;2.30;;;6.60;98.40;;;;;;5022898;28;20084;-60
2021/10/22 04:00:06;;;;;;;11.82;2.55;;;6.60;98.50;;;;;;5022007;28;20128;-59
2021/10/22 04:02:33;;;;;;;9.05;3.58;;;6.60;98.50;;;;;;5016494;28;20159;-59
2021/10/22 04:05:03;;;;;;;9.02;2.50;;;6.60;98.60;;;;;;5021626;28;20076;-60
2021/10/22 04:07:30;;;;;;;7.13;2.35;;;6.60;98.60;;;;;;5022137;28;20084;-59
2021/10/22 04:09:57;;;;;;;8.23;1.88;;;6.60;98.50;;;;;;5023419;28;20132;-59
2021/10/22 04:12:24;;;;;;;6.07;1.95;;;6.60;98.50;;;;;;5022066;28;20128;-59
2021/10/22 04:14:50;;;;;;;7.18;4.10;;;6.50;98.60;;;;;;5022404;28;20056;-59
2021/10/22 04:17:17;;;;;;;9.50;2.13;;;6.50;98.70;;;;;;5021996;28;20159;-59
2021/10/22 04:19:44;;;;;;;10.63;2.20;;;6.60;98.70;;;;;;5023151;28;20358;-59
2021/10/22 04:22:11;;;;;;;10.00;2.47;;;6.50;98.70;;;;;;5022242;28;20085;-60
2021/10/22 04:24:38;;;;;;;7.30;2.05;;;6.60;98.70;;;;;;5022700;28;20132;-59
2021/10/22 04:27:04;;;;;;;6.97;2.03;;;6.60;98.70;;;;;;5022259;28;20076;-59
2021/10/22 04:29:31;;;;;;;7.93;2.20;;;6.50;98.70;;;;;;5022277;28;20136;-59
2021/10/22 04:31:58;;;;;;;8.93;1.85;;;6.60;98.70;;;;;;5022771;28;20073;-60
2021/10/22 04:34:27;;;;;;;12.93;2.47;;;6.60;98.80;;;;;;5022151;28;20136;-59
2021/10/22 04:37:10;;;;;;;10.52;2.20;;;6.60;98.90;;;;;;5020479;28;20053;-59
2021/10/22 04:42:22;;;;;;;8.20;1.48;;;6.60;98.70;;;;;;5015453;28;20132;-59
2021/10/22 04:44:49;;;;;;;5.75;1.85;;;6.60;98.70;;;;;;5016197;28;20133;-59
2021/10/22 04:47:15;;;;;;;6.40;1.80;;;6.60;98.60;;;;;;5017342;28;20145;-60
2021/10/22 04:49:43;;;;;;;9.65;1.60;;;6.60;98.80;;;;;;5016116;28;20137;-60
2021/10/22 04:52:10;;;;;;;14.07;2.05;;;6.60;98.80;;;;;;5019276;28;20115;-59
2021/10/22 04:54:36;;;;;;;5.78;1.98;;;6.70;98.70;;;;;;5021161;28;20069;-59
2021/10/22 04:57:03;;;;;;;14.50;2.10;;;6.70;98.90;;;;;;5021828;28;20613;-59
2021/10/22 04:59:30;;;;;;;7.10;2.03;;;6.70;98.90;;;;;;5020919;28;20103;-59
2021/10/22 05:01:57;;;;;;;9.10;2.30;;;6.70;98.80;;;;;;5021034;28;20208;-59
2021/10/22 05:04:24;;;;;;;7.18;1.90;;;6.70;98.70;;;;;;5021199;28;20050;-59
2021/10/22 05:06:50;;;;;;;6.95;1.75;;;6.70;98.90;;;;;;5020570;28;20073;-59
2021/10/22 05:09:17;;;;;;;8.43;2.65;;;6.70;98.80;;;;;;5022535;28;20084;-59
2021/10/22 05:11:45;;;;;;;8.40;2.03;;;6.70;98.80;;;;;;5020544;28;20136;-59
2021/10/22 05:14:11;;;;;;;9.07;2.00;;;6.70;98.90;;;;;;5019357;28;20124;-59
2021/10/22 05:16:38;;;;;;;4.13;1.73;;;6.70;98.80;;;;;;5019382;28;20132;-60
2021/10/22 05:19:05;;;;;;;12.68;2.88;;;6.70;98.80;;;;;;5020870;28;20059;-60
2021/10/22 05:21:32;;;;;;;6.97;1.85;;;6.70;98.90;;;;;;5017635;28;20083;-59
2021/10/22 05:23:59;;;;;;;7.80;2.50;;;6.70;98.90;;;;;;5020682;28;20073;-59
2021/10/22 05:26:26;;;;;;;9.45;1.95;;;6.60;98.90;;;;;;5021025;28;20132;-60
2021/10/22 05:28:53;;;;;;;5.30;1.80;;;6.60;98.90;;;;;;5018237;28;20109;-59
2021/10/22 05:31:20;;;;;;;10.05;1.77;;;6.70;99.00;;;;;;5019535;28;20559;-60
2021/10/22 05:33:46;;;;;;;6.80;3.17;;;6.60;99.00;;;;;;5019555;28;20049;-59
2021/10/22 05:36:13;;;;;;;8.32;2.45;;;6.60;99.20;;;;;;5020074;28;20057;-59
2021/10/22 05:38:40;;;;;;;7.18;1.83;;;6.60;99.20;;;;;;5018583;28;20080;-59
2021/10/22 05:41:07;;;;;;;6.93;1.77;;;6.50;99.10;;;;;;5020420;28;20132;-59
2021/10/22 05:43:34;;;;;;;5.72;2.17;;;6.60;99.20;;;;;;5017911;28;20531;-60
2021/10/22 05:46:01;;;;;;;9.25;1.73;;;6.50;99.20;;;;;;5020286;28;20133;-59
2021/10/22 05:48:28;;;;;;;8.23;2.00;;;6.50;99.30;;;;;;5019744;28;20267;-60
2021/10/22 05:50:55;;;;;;;6.30;1.60;;;6.50;99.20;;;;;;5021838;28;20485;-60
2021/10/22 05:53:22;;;;;;;6.05;2.13;;;6.60;99.30;;;;;;5020343;28;20148;-60
2021/10/22 05:55:49;;;;;;;7.72;2.30;;;6.60;99.20;;;;;;5021157;28;20096;-60
2021/10/22 05:58:15;;;;;;;8.80;2.05;;;6.60;99.30;;;;;;5019983;28;20111;-60
2021/10/22 06:00:43;;;;;;;6.65;1.60;;;6.60;99.20;;;;;;5020387;28;20054;-59
2021/10/22 06:03:10;;;;;;;6.30;2.63;;;6.60;99.30;;;;;;5019334;28;20106;-58
2021/10/22 06:05:39;;;;;;;6.32;2.38;;;6.60;99.30;;;;;;5019419;28;20432;-59
2021/10/22 06:08:07;;;;;;;7.25;2.20;;;6.60;99.30;;;;;;5020794;28;20493;-59
2021/10/22 06:10:34;;;;;;;10.25;2.45;;;6.60;99.20;;;;;;5020824;28;20053;-59
2021/10/22 06:13:02;;;;;;;8.88;2.08;;;6.60;99.30;;;;;;5019717;28;20053;-59
2021/10/22 06:15:30;;;;;;;5.57;2.00;;;6.60;99.10;;;;;;5019838;28;20088;-61
2021/10/22 06:17:57;;;;;;;5.55;1.80;;;6.60;99.10;;;;;;5019284;28;20059;-59
2021/10/22 06:20:41;;;;;;;9.68;2.13;;;6.60;99.20;;;;;;5020260;28;20077;-60
2021/10/22 06:25:39;;;;;;;9.60;2.05;;;6.50;99.20;;;;;;5020126;28;20132;-59
2021/10/22 06:28:05;;;;;;;9.95;2.20;;;6.50;99.30;;;;;;5018821;28;20476;-59
2021/10/22 06:30:33;;;;;;;7.15;1.83;;;6.50;99.40;;;;;;5019789;28;20203;-59
2021/10/22 06:32:59;;;;;;;7.28;1.63;;;6.40;99.60;;;;;;5019240;28;20107;-58
2021/10/22 06:35:26;;;;;;;13.82;2.35;;;6.40;99.40;;;;;;5019299;28;20160;-59
2021/10/22 06:37:55;;;;;;;10.18;3.17;;;6.40;99.50;;;;;;5020279;28;20754;-59
2021/10/22 06:40:22;;;;;;;8.30;2.38;;;6.40;99.40;;;;;;5019483;28;20124;-59
2021/10/22 06:42:51;;;;;;;13.93;1.90;;;6.40;99.40;;;;;;5019125;28;20057;-59
2021/10/22 06:45:18;;;;;;;5.40;1.50;;;6.40;99.30;;;;;;5018718;28;20156;-59
2021/10/22 06:47:47;;;;;;;4.82;1.88;;;6.50;99.30;;;;;;5017485;28;20156;-59
2021/10/22 06:50:15;;;;;;;5.22;1.60;;;6.50;99.30;;;;;;5019177;28;20733;-59
2021/10/22 06:52:42;;;;;;;5.60;1.70;;;6.50;99.20;;;;;;5018163;28;20136;-60
2021/10/22 06:55:09;;;;;;;4.95;1.55;;;6.50;99.00;;;;;;5017218;28;20132;-59
2021/10/22 06:57:40;;;;;;;6.38;2.05;;;6.60;98.90;;;;;;5018501;28;20703;-58
2021/10/22 07:00:10;;;;;;;9.68;1.70;;;6.60;98.80;;;;;;5018806;28;20073;-59
2021/10/22 07:02:51;;;;;;;5.97;1.60;;;6.70;98.60;;;;;;5031305;28;20057;-59
2021/10/22 07:05:48;;;;;;;7.15;2.05;;;6.70;98.50;;;;;;5013336;28;20121;-58
2021/10/22 07:08:12;;;;;;;8.40;1.60;;;6.80;98.30;;;;;;5017285;28;20111;-60
2021/10/22 07:10:39;;;;;;;8.00;1.50;;;6.90;98.00;;;;;;5018336;28;20156;-59
2021/10/22 07:13:06;;;;;;;5.70;1.70;;;6.90;98.00;;;;;;5016869;28;20060;-59
2021/10/22 07:15:33;;;;;;;8.13;1.52;;;7.10;97.60;;;;;;5019365;28;20562;-59
2021/10/22 07:18:00;;;;;;;5.68;1.50;;;7.10;97.40;;;;;;5018177;28;20073;-59
2021/10/22 07:20:27;;;;;;;6.57;1.60;;;7.30;96.70;;;;;;5019571;28;20081;-59
2021/10/22 07:23:06;;;;;;;4.53;1.17;;;7.40;96.90;;;;;;5018164;28;20072;-59
2021/10/22 07:25:35;;;;;;;5.53;1.52;;;7.50;96.80;;;;;;5004169;28;20085;-59
2021/10/22 07:28:35;;;;;;;5.30;1.92;;;7.50;95.90;;;;;;5016671;28;20041;-59
2021/10/22 07:30:55;;;;;;;6.97;1.50;;;7.60;96.00;;;;;;5015055;28;20087;-59
2021/10/22 07:33:22;;;;;;;5.30;1.92;;;7.70;95.70;;;;;;5032819;28;20476;-59
2021/10/22 07:35:49;;;;;;;11.25;1.52;;;7.70;95.70;;;;;;5018499;28;20057;-59
2021/10/22 07:38:16;;;;;;;7.45;1.35;;;7.80;95.60;;;;;;5016009;28;20124;-59
2021/10/22 07:40:46;;;;;;;6.30;1.42;;;7.90;95.40;;;;;;5018025;28;20049;-59
2021/10/22 07:43:19;;;;;;;5.70;1.88;;;8.00;95.10;;;;;;5016107;28;20045;-59
2021/10/22 07:45:47;;;;;;;6.75;2.17;;;8.00;94.70;;;;;;5033349;28;20129;-59
2021/10/22 07:48:14;;;;;;;7.53;1.70;;;8.10;94.80;;;;;;5017773;28;20125;-59
2021/10/22 07:50:41;;;;;;;5.65;1.83;;;8.20;94.90;;;;;;5018032;28;20085;-59
2021/10/22 07:53:08;;;;;;;6.85;1.65;;;8.20;94.90;;;;;;5017136;28;20137;-59
2021/10/22 07:55:36;;;;;;;5.72;1.48;;;8.30;94.80;;;;;;5019817;28;20839;-59
2021/10/22 07:58:03;;;;;;;10.32;1.73;;;8.30;94.60;;;;;;5020022;28;20045;-59
2021/10/22 08:00:30;;;;;;;8.02;1.80;;;8.40;94.30;;;;;;5017995;28;20576;-59
2021/10/22 08:02:57;;;;;;;7.30;1.70;;;8.40;94.00;;;;;;5017438;28;20060;-58
2021/10/22 08:05:24;;;;;;;6.00;1.30;;;8.40;93.90;;;;;;5017666;28;20725;-59
2021/10/22 08:07:51;;;;;;;6.10;1.60;;;8.50;94.00;;;;;;5018858;28;20079;-60
2021/10/22 08:10:23;;;;;;;9.18;2.15;;;8.50;93.60;;;;;;5017854;28;20145;-59
2021/10/22 08:12:50;;;;;;;7.35;1.52;;;8.50;93.50;;;;;;5018202;28;20132;-60
2021/10/22 08:15:37;;;;;;;9.82;1.40;;;8.50;93.30;;;;;;5014528;28;20493;-59
2021/10/22 08:18:04;;;;;;;4.30;1.70;;;8.50;93.40;;;;;;5020759;28;20057;-59
2021/10/22 08:20:34;;;;;;;3.95;1.60;;;8.60;93.30;;;;;;5003535;28;20314;-60
2021/10/22 08:23:01;;;;;;;4.03;1.55;;;8.70;93.70;;;;;;5020628;28;20148;-59
2021/10/22 08:25:28;;;;;;;8.32;1.80;;;8.90;92.90;;;;;;5019288;28;20266;-59
2021/10/22 08:27:55;;;;;;;11.25;1.55;;;8.90;92.60;;;;;;5018221;28;20081;-59
2021/10/22 08:30:23;;;;;;;7.47;1.65;;;9.00;92.10;;;;;;5017528;28;20054;-59
2021/10/22 08:32:51;;;;;;;7.88;1.20;;;9.00;92.10;;;;;;5016324;28;20201;-59
2021/10/22 08:35:18;;;;;;;9.25;1.80;;;9.10;92.20;;;;;;5017408;28;20132;-59
2021/10/22 08:37:46;;;;;;;7.80;2.47;;;9.10;92.60;;;;;;5007152;28;20142;-60
2021/10/22 08:40:13;;;;;;;9.52;2.30;;;9.10;92.40;;;;;;5018499;28;20160;-59
2021/10/22 08:42:42;;;;;;;7.60;1.60;;;9.00;92.30;;;;;;5015024;28;20353;-60
2021/10/22 08:45:10;;;;;;;5.80;1.48;;;9.00;92.10;;;;;;5015957;28;20073;-59
2021/10/22 08:47:37;;;;;;;6.15;1.60;;;9.00;92.00;;;;;;5016452;28;20136;-59
2021/10/22 08:50:14;;;;;;;8.50;1.50;;;9.10;92.30;;;;;;5017751;28;20057;-59
2021/10/22 08:52:41;;;;;;;5.20;2.00;;;9.10;91.70;;;;;;5017062;28;20128;-59
2021/10/22 08:55:12;;;;;;;3.38;1.50;;;9.20;92.00;;;;;;5016834;28;20050;-59
2021/10/22 08:57:44;;;;;;;10.68;1.88;;;9.30;91.40;;;;;;5016835;28;20136;-59
2021/10/22 09:00:13;;;;;;;8.43;3.47;;;9.40;91.20;;;;;;5016850;28;20116;-60
2021/10/22 09:02:40;;;;;;;4.20;1.67;;;9.50;91.40;;;;;;5015723;28;20053;-59
2021/10/22 09:05:17;;;;;;;5.85;1.50;;;9.60;90.70;;;;;;5015573;28;20045;-59
2021/10/22 09:07:48;;;;;;;4.15;1.55;;;9.70;91.10;;;;;;5013710;28;20140;-59
2021/10/22 09:10:17;;;;;;;5.28;1.92;;;9.80;90.20;;;;;;5015730;28;20041;-59
2021/10/22 09:12:45;;;;;;;5.85;1.23;;;9.90;89.80;;;;;;5015131;28;20204;-59
2021/10/22 09:15:21;;;;;;;12.13;2.47;;;10.10;89.30;;;;;;5015118;28;20412;-59
2021/10/22 09:17:48;;;;;;;8.13;1.75;;;10.20;88.10;;;;;;5012993;28;20160;-59
2021/10/22 09:20:15;;;;;;;5.00;1.77;;;10.30;88.10;;;;;;5015831;28;20081;-59
2021/10/22 09:22:55;;;;;;;5.57;1.45;;;10.30;87.10;;;;;;5015608;28;20136;-59
2021/10/22 09:25:26;;;;;;;3.63;1.13;;;10.40;88.10;;;;;;5023129;28;20077;-59
2021/10/22 09:28:01;;;;;;;6.72;1.33;;;10.40;87.00;;;;;;5014619;28;20060;-60
2021/10/22 09:30:38;;;;;;;5.32;1.38;;;10.50;88.00;;;;;;5014179;28;20552;-59
2021/10/22 09:33:10;;;;;;;2.53;1.13;;;10.50;88.70;;;;;;5013351;28;20046;-59
2021/10/22 09:35:37;;;;;;;7.50;1.40;;;10.60;88.90;;;;;;5013882;28;20144;-59
2021/10/22 09:38:11;;;;;;;6.40;1.40;;;10.60;87.40;;;;;;5020448;28;20148;-60
2021/10/22 09:40:39;;;;;;;3.80;1.83;;;10.70;87.10;;;;;;5016749;28;20065;-59
2021/10/22 09:43:23;;;;;;;7.78;1.65;;;10.80;87.60;;;;;;5016782;28;20053;-58
2021/10/22 09:46:07;;;;;;;4.07;1.25;;;10.80;85.90;;;;;;5017232;28;20436;-59
2021/10/22 09:48:34;;;;;;;3.35;1.52;;;10.80;86.90;;;;;;5010290;28;20064;-59
2021/10/22 09:51:27;;;;;;;6.05;2.10;;;10.80;87.20;;;;;;5016107;28;20129;-59
2021/10/22 09:54:12;;;;;;;7.07;1.58;;;10.90;85.90;;;;;;5018132;28;20053;-59
2021/10/22 09:56:41;;;;;;;4.88;1.70;;;11.00;85.60;;;;;;5018547;28;20486;-59
2021/10/22 09:59:10;;;;;;;6.78;1.20;;;11.00;86.80;;;;;;5019040;28;20072;-59
2021/10/22 10:01:41;;;;;;;5.55;1.67;;;11.00;86.60;;;;;;5019552;28;20108;-59
2021/10/22 10:04:13;;;;;;;3.15;1.30;;;11.10;87.10;;;;;;5019541;28;20571;-57
2021/10/22 10:07:00;;;;;;;7.60;1.38;;;11.20;86.60;;;;;;5015184;28;20397;-59
2021/10/22 10:09:27;;;;;;;7.05;1.65;;;11.20;86.40;;;;;;5020807;28;20165;-59
2021/10/22 10:11:55;;;;;;;2.67;1.20;;;11.30;87.60;;;;;;5019866;28;20136;-59
2021/10/22 10:14:25;;;;;;;4.05;1.40;;;11.30;85.40;;;;;;5018558;28;20141;-59
2021/10/22 10:16:52;;;;;;;5.78;1.35;;;11.30;85.00;;;;;;5019878;28;20119;-59
2021/10/22 10:19:28;;;;;;;3.03;1.58;;;11.20;85.50;;;;;;5019670;28;20616;-59
2021/10/22 10:21:59;;;;;;;5.70;1.45;;;11.30;85.10;;;;;;5004653;28;20172;-59
2021/10/22 10:24:31;;;;;;;4.63;1.33;;;11.30;86.40;;;;;;5004118;28;20046;-59
2021/10/22 10:27:08;;;;;;;6.03;1.33;;;11.40;85.20;;;;;;5031916;28;20080;-59
2021/10/22 10:29:44;;;;;;;12.27;6.75;;;11.40;84.30;;;;;;5020236;28;20081;-59
2021/10/22 10:32:19;;;;;;;9.38;1.98;;;11.40;84.30;;;;;;5019218;28;20099;-59
2021/10/22 10:34:53;;;;;;;8.25;1.48;;;11.40;83.80;;;;;;5021175;28;20674;-59
2021/10/22 10:37:30;;;;;;;6.82;1.10;;;11.40;85.00;;;;;;5020181;28;20620;-59
2021/10/22 10:40:01;;;;;;;3.28;0.90;;;11.50;85.50;;;;;;5020975;28;20136;-59
2021/10/22 10:42:33;;;;;;;5.75;1.55;;;11.50;84.80;;;;;;5020420;28;20132;-58
2021/10/22 10:45:23;;;;;;;6.97;2.75;;;11.60;85.20;;;;;;5019976;28;20057;-59
2021/10/22 10:47:56;;;;;;;4.60;1.48;;;11.70;84.10;;;;;;5012287;28;20151;-59
2021/10/22 10:50:25;;;;;;;6.82;1.65;;;11.90;84.00;;;;;;5018588;28;20049;-59
2021/10/22 10:52:54;;;;;;;6.57;1.58;;;12.00;82.20;;;;;;5020641;28;21029;-60
2021/10/22 10:55:31;;;;;;;4.93;1.77;;;12.10;82.90;;;;;;5019797;28;20160;-59
2021/10/22 10:58:07;;;;;;;2.65;1.58;;;12.20;81.00;;;;;;5019727;28;20111;-59
2021/10/22 11:00:36;;;;;;;2.83;1.10;;;12.20;81.00;;;;;;5018585;28;20124;-59
2021/10/22 11:03:03;;;;;;;2.65;1.00;;;12.20;82.00;;;;;;5015592;28;20045;-57
2021/10/22 11:05:46;;;;;;;8.50;2.05;;;12.20;82.20;;;;;;5019009;28;20125;-59
2021/10/22 11:08:25;;;;;;;6.00;1.60;;;12.30;81.50;;;;;;5018339;28;20134;-59
2021/10/22 11:11:11;;;;;;;3.20;1.38;;;12.30;81.90;;;;;;5016736;28;20282;-59
2021/10/22 11:13:53;;;;;;;4.57;1.15;;;12.40;82.00;;;;;;5017092;28;20381;-59
2021/10/22 11:16:28;;;;;;;6.63;1.58;;;12.60;80.70;;;;;;5015059;28;20156;-59
2021/10/22 11:19:05;;;;;;;4.47;1.23;;;12.90;81.50;;;;;;5016057;28;20053;-61
2021/10/22 11:21:45;;;;;;;6.45;1.92;;;12.90;82.10;;;;;;5031463;28;20438;-59
2021/10/22 11:24:19;;;;;;;5.28;1.88;;;12.90;81.20;;;;;;5016310;28;20137;-59
2021/10/22 11:26:53;;;;;;;6.35;1.92;;;13.00;80.50;;;;;;5017822;28;20877;-59
2021/10/22 11:29:20;;;;;;;6.80;1.25;;;12.90;80.70;;;;;;5014922;28;20701;-59
2021/10/22 11:31:48;;;;;;;6.00;1.73;;;13.00;81.80;;;;;;5017430;28;20173;-59
2021/10/22 11:34:17;;;;;;;6.63;1.65;;;13.10;81.10;;;;;;5017998;28;20435;-59
2021/10/22 11:36:48;;;;;;;8.00;1.67;;;13.20;80.20;;;;;;5032420;28;20058;-59
2021/10/22 11:39:17;;;;;;;3.35;1.35;;;13.40;80.60;;;;;;5015611;28;20085;-59
2021/10/22 11:41:46;;;;;;;4.28;1.85;;;13.40;80.50;;;;;;5018538;28;20080;-59
2021/10/22 11:44:13;;;;;;;6.15;1.50;;;13.60;79.60;;;;;;5018173;28;20441;-59
2021/10/22 11:46:46;;;;;;;2.97;1.10;;;13.60;80.10;;;;;;5018574;28;20503;-59
2021/10/22 11:49:26;;;;;;;;;;;13.80;78.90;;;;;;5017446;28;20532;-60
2021/10/22 11:51:53;;;;;;;4.70;1.40;;;14.00;76.60;;;;;;5013426;28;20293;-59
2021/10/22 11:54:33;;;;;;;3.78;1.85;;;14.30;76.60;;;;;;5018538;28;20430;-60
2021/10/22 11:57:04;;;;;;;7.70;1.63;;;14.40;75.30;;;;;;5018624;28;20049;-61
2021/10/22 11:59:31;;;;;;;4.13;1.45;;;14.20;74.70;;;;;;5013671;28;20084;-59
2021/10/22 12:02:05;;;;;;;7.47;1.83;;;14.10;76.50;;;;;;5017844;28;20209;-59
2021/10/22 12:04:32;;;;;;;6.05;1.80;;;14.30;76.50;;;;;;5016555;28;20049;-59
2021/10/22 12:07:07;;;;;;;5.28;1.13;;;14.60;76.20;;;;;;5018585;28;20793;-59
2021/10/22 12:09:43;;;;;;;4.70;1.67;;;14.30;74.90;;;;;;5018189;28;20496;-60
2021/10/22 12:12:13;;;;;;;4.30;1.33;;;14.30;75.50;;;;;;5017674;28;20405;-60
2021/10/22 12:14:44;;;;;;;4.15;1.40;;;14.70;78.50;;;;;;5024205;28;20051;-59
2021/10/22 12:17:13;;;;;;;4.00;1.15;;;15.20;75.60;;;;;;5017274;28;20563;-59
2021/10/22 12:19:41;;;;;;;4.50;1.10;;;15.60;74.50;;;;;;5018006;28;20045;-60
2021/10/22 12:22:08;;;;;;;2.58;1.20;;;16.10;71.80;;;;;;5017165;28;20288;-60
2021/10/22 12:24:40;;;;;;;5.35;1.25;;;16.20;70.60;;;;;;5019081;28;20398;-59
2021/10/22 12:27:07;;;;;;;2.72;1.00;;;15.40;71.20;;;;;;5017864;28;20061;-60
2021/10/22 12:29:57;;;;;;;5.47;1.20;;;14.90;72.30;;;;;;5017700;28;20049;-59
2021/10/22 12:32:43;;;;;;;4.18;1.98;;;14.50;73.60;;;;;;5015693;28;20124;-59
2021/10/22 12:35:19;;;;;;;3.05;1.00;;;14.40;74.70;;;;;;5017375;28;20084;-59
2021/10/22 12:37:56;;;;;;;3.28;1.13;;;14.40;76.90;;;;;;5013721;28;20085;-60
2021/10/22 12:40:39;;;;;;;3.15;0.95;;;14.70;74.40;;;;;;5018339;28;20045;-60
2021/10/22 12:43:10;;;;;;;5.88;2.08;;;15.10;73.30;;;;;;5010565;28;20211;-60
2021/10/22 12:45:41;;;;;;;4.07;1.23;;;15.40;74.20;;;;;;5016932;28;20085;-60
2021/10/22 12:48:11;;;;;;;4.00;1.63;;;15.70;72.20;;;;;;5013763;28;20614;-60
2021/10/22 12:50:43;;;;;;;3.28;1.27;;;15.80;71.50;;;;;;5017761;28;20132;-60
2021/10/22 12:53:13;;;;;;;2.33;1.00;;;16.10;70.20;;;;;;5019100;28;20076;-60
2021/10/22 12:55:41;;;;;;;2.95;1.05;;;16.60;67.80;;;;;;5018630;28;20077;-60
2021/10/22 12:58:15;;;;;;;3.33;1.00;;;16.80;68.00;;;;;;5017582;28;20088;-60
2021/10/22 13:00:43;;;;;;;3.60;1.05;;;16.50;67.50;;;;;;5017483;28;20102;-60
2021/10/22 13:03:11;;;;;;;2.85;1.08;;;16.20;66.80;;;;;;5017166;28;20053;-60
2021/10/22 13:05:40;;;;;;;3.75;1.20;;;16.10;68.90;;;;;;5017294;28;20202;-60
2021/10/22 13:11:03;;;;;;;3.85;1.00;;;15.90;69.50;;;;;;5019360;28;20085;-60
2021/10/22 13:13:57;;;;;;;2.40;0.93;;;15.50;70.00;;;;;;5004208;28;20084;-60